createdAt,value
2022-10-11T00:04:35.599Z,99496.61
2022-10-11T00:09:42.801Z,99498.94
2022-10-11T00:14:48.487Z,99501.15
2022-10-11T00:19:55.676Z,99497.00
2022-10-11T00:25:05.573Z,99502.36
2022-10-11T00:30:14.467Z,99506.84
2022-10-11T00:35:22.307Z,99504.10
2022-10-11T00:40:29.718Z,99499.71
2022-10-11T00:46:26.469Z,99505.86
2022-10-11T00:51:48.446Z,99507.15
2022-10-11T00:56:59.484Z,99510.84
2022-10-11T01:02:08.131Z,99509.84
2022-10-11T01:07:16.170Z,99508.08
2022-10-11T01:12:28.097Z,99510.51
2022-10-11T01:17:42.592Z,99509.89
2022-10-11T01:23:23.689Z,99508.68
2022-10-11T01:28:43.666Z,99508.50
2022-10-11T01:33:56.862Z,99507.08
2022-10-11T01:39:11.784Z,99506.58
2022-10-11T01:44:19.763Z,99504.74
2022-10-11T01:49:27.386Z,99508.16
2022-10-11T01:55:08.277Z,99512.09
2022-10-11T02:00:17.826Z,99515.20
2022-10-11T02:05:38.247Z,99515.95
2022-10-11T02:10:49.974Z,99519.38
2022-10-11T02:16:00.411Z,99521.13
2022-10-11T02:21:11.081Z,99521.38
2022-10-11T02:26:21.061Z,99519.49
2022-10-11T02:31:29.278Z,99519.29
2022-10-11T02:36:44.742Z,99514.86
2022-10-11T02:41:57.208Z,99516.61
2022-10-11T02:47:05.582Z,99519.63
2022-10-11T02:52:12.736Z,99517.20
2022-10-11T02:57:19.984Z,99520.26
2022-10-11T03:02:25.712Z,99529.09
2022-10-11T03:07:32.649Z,99531.50
2022-10-11T03:12:38.512Z,99533.84
2022-10-11T03:17:45.512Z,99533.42
2022-10-11T03:22:52.792Z,99542.98
2022-10-11T03:28:00.099Z,99543.44
2022-10-11T03:33:05.800Z,99542.29
2022-10-11T03:38:16.612Z,99544.27
2022-10-11T03:43:23.899Z,99547.40
2022-10-11T03:48:31.193Z,99552.69
2022-10-11T03:53:39.254Z,99555.48
2022-10-11T03:58:46.459Z,99554.34
2022-10-11T04:03:51.703Z,99556.56
2022-10-11T04:08:58.895Z,99559.63
2022-10-11T04:14:06.213Z,99559.55
2022-10-11T04:19:13.827Z,99562.40
2022-10-11T04:24:21.403Z,99564.76
2022-10-11T04:29:32.618Z,99567.58
2022-10-11T04:34:40.230Z,99567.18
2022-10-11T04:39:47.494Z,99568.47
2022-10-11T04:44:54.487Z,99571.17
2022-10-11T04:50:05.163Z,99573.23
2022-10-11T04:55:13.343Z,99578.17
2022-10-11T05:00:22.307Z,99580.11
2022-10-11T05:05:30.087Z,99587.02
2022-10-11T05:10:37.501Z,99589.63
2022-10-11T05:15:44.815Z,99594.33
2022-10-11T05:20:51.550Z,99598.93
2022-10-11T05:25:59.337Z,99607.45
2022-10-11T05:31:07.631Z,99619.45
2022-10-11T05:36:15.477Z,99623.84
2022-10-11T05:41:22.684Z,99633.58
2022-10-11T05:46:30.205Z,99634.85
2022-10-11T05:51:37.480Z,99642.03
2022-10-11T05:56:44.608Z,99648.22
2022-10-11T06:01:52.094Z,99653.75
2022-10-11T06:07:00.147Z,99662.08
2022-10-11T06:12:10.048Z,99668.73
2022-10-11T06:17:17.926Z,99674.40
2022-10-11T06:22:25.650Z,99679.79
2022-10-11T06:27:32.940Z,99682.74
2022-10-11T06:32:43.422Z,99683.60
2022-10-11T06:37:51.645Z,99689.39
2022-10-11T06:42:58.693Z,99691.86
2022-10-11T06:48:07.625Z,99693.77
2022-10-11T06:53:15.306Z,99705.92
2022-10-11T06:58:22.420Z,99709.62
2022-10-11T07:03:29.553Z,99714.03
2022-10-11T07:08:37.959Z,99720.70
2022-10-11T07:13:45.583Z,99722.73
2022-10-11T07:19:00.251Z,99735.26
2022-10-11T07:24:09.645Z,99744.60
2022-10-11T07:29:17.456Z,99753.16
2022-10-11T07:34:25.137Z,99754.97
2022-10-11T07:39:32.560Z,99760.16
2022-10-11T07:44:39.712Z,99760.09
2022-10-11T07:49:47.114Z,99765.70
2022-10-11T07:54:54.098Z,99770.64
2022-10-11T08:00:01.155Z,99771.35
2022-10-11T08:05:09.819Z,99772.21
2022-10-11T08:10:19.125Z,99769.52
2022-10-11T08:15:27.165Z,99774.71
2022-10-11T08:20:34.917Z,99783.60
2022-10-11T08:25:45.350Z,99786.18
2022-10-11T08:30:54.578Z,99784.82
2022-10-11T08:36:05.280Z,99790.45
2022-10-11T08:41:32.018Z,99791.35
2022-10-11T08:46:41.639Z,99794.53
2022-10-11T08:51:52.662Z,99792.46
2022-10-11T08:56:59.888Z,99799.17
2022-10-11T09:02:21.285Z,99809.58
2022-10-11T09:07:43.603Z,99805.13
2022-10-11T09:12:59.414Z,99802.27
2022-10-11T09:18:31.043Z,99802.20
2022-10-11T09:23:55.024Z,99805.86
2022-10-11T09:29:11.859Z,99805.36
2022-10-11T09:34:20.095Z,99813.53
2022-10-11T09:39:33.747Z,99814.21
2022-10-11T09:44:42.997Z,99819.44
2022-10-11T09:49:55.639Z,99812.21
2022-10-11T09:55:04.386Z,99808.94
2022-10-11T10:00:25.126Z,99812.70
2022-10-11T10:05:34.065Z,99810.94
2022-10-11T10:10:44.600Z,99813.18
2022-10-11T10:15:54.678Z,99813.95
2022-10-11T10:21:03.015Z,99818.60
2022-10-11T10:26:17.893Z,99818.34
2022-10-11T10:31:40.257Z,99821.84
2022-10-11T10:37:05.256Z,99828.13
2022-10-11T10:42:17.963Z,99825.91
2022-10-11T10:47:43.667Z,99830.64
2022-10-11T10:53:04.166Z,99831.07
2022-10-11T10:58:26.668Z,99830.40
2022-10-11T11:03:45.001Z,99825.08
2022-10-11T11:09:03.161Z,99822.48
2022-10-11T11:14:24.104Z,99825.35
2022-10-11T11:19:46.664Z,99822.88
2022-10-11T11:25:06.915Z,99825.70
2022-10-11T11:30:20.883Z,99828.85
2022-10-11T11:35:34.691Z,99828.18
2022-10-11T11:40:46.290Z,99830.52
2022-10-11T11:45:58.392Z,99832.98
2022-10-11T11:51:11.749Z,99832.64
2022-10-11T11:56:30.718Z,99835.45
2022-10-11T12:01:44.722Z,99835.86
2022-10-11T12:07:15.902Z,99841.04
2022-10-11T12:12:34.316Z,99838.41
2022-10-11T12:18:17.858Z,99839.93
2022-10-11T12:23:47.503Z,99842.30
2022-10-11T12:29:29.226Z,99845.46
2022-10-11T12:39:54.797Z,99851.14
2022-10-11T12:45:34.767Z,99855.79
2022-10-11T12:50:51.698Z,99865.89
2022-10-11T12:56:05.720Z,99863.80
2022-10-11T13:01:19.265Z,99871.70
2022-10-11T13:06:30.289Z,99881.36
2022-10-11T13:11:41.796Z,99891.13
2022-10-11T13:17:00.169Z,99891.16
2022-10-11T13:22:17.185Z,99893.71
2022-10-11T13:27:27.561Z,99891.33
2022-10-11T13:32:37.324Z,99893.36
2022-10-11T13:37:47.859Z,99896.40
2022-10-11T13:42:56.610Z,99896.71
2022-10-11T13:48:03.996Z,99898.52
2022-10-11T13:53:26.212Z,99895.19
2022-10-11T13:58:38.988Z,99897.89
2022-10-11T14:03:50.626Z,99898.21
2022-10-11T14:09:00.325Z,99899.20
2022-10-11T14:14:41.660Z,99897.85
2022-10-11T14:20:08.738Z,99899.07
2022-10-11T14:25:18.879Z,99897.08
2022-10-11T14:30:28.164Z,99895.21
2022-10-11T14:35:36.519Z,99894.33
2022-10-11T14:40:44.001Z,99894.15
2022-10-11T14:45:51.742Z,99893.95
2022-10-11T14:51:02.771Z,99893.94
2022-10-11T14:56:11.126Z,99898.21
2022-10-11T15:01:19.808Z,99899.21
2022-10-11T15:06:31.615Z,99900.35
2022-10-11T15:11:40.052Z,99901.58
2022-10-11T15:16:47.701Z,99902.75
2022-10-11T15:21:55.278Z,99906.61
2022-10-11T15:27:02.655Z,99907.09
2022-10-11T15:32:34.492Z,99914.77
2022-10-11T15:37:41.849Z,99923.45
2022-10-11T15:42:50.440Z,99928.64
2022-10-11T15:47:58.377Z,99933.80
2022-10-11T15:53:09.477Z,99942.05
2022-10-11T15:58:18.645Z,99939.50
2022-10-11T16:03:27.429Z,99943.41
2022-10-11T16:08:35.589Z,99951.83
2022-10-11T16:13:42.997Z,99954.75
2022-10-11T16:18:52.468Z,99957.54
2022-10-11T16:23:59.676Z,99966.60
2022-10-11T16:29:06.962Z,99970.08
2022-10-11T16:34:14.022Z,99973.25
2022-10-11T16:39:21.592Z,99980.28
2022-10-11T16:44:28.454Z,99981.55
2022-10-11T16:49:35.487Z,99983.98
2022-10-11T16:54:45.561Z,99984.13
2022-10-11T16:59:52.975Z,99990.60
2022-10-11T17:04:59.973Z,99994.66
2022-10-11T17:10:09.380Z,100001.60
2022-10-11T17:15:16.611Z,99998.33
2022-10-11T17:20:23.806Z,100008.18
2022-10-11T17:25:31.183Z,100012.80
2022-10-11T17:30:41.262Z,100011.66
2022-10-11T17:35:48.306Z,100016.22
2022-10-11T17:41:02.287Z,100016.48
2022-10-11T17:46:10.682Z,100016.85
2022-10-11T17:51:19.987Z,100015.00
2022-10-11T17:56:33.679Z,100022.50
2022-10-11T18:01:44.513Z,100026.65
2022-10-11T18:06:51.935Z,100029.02
2022-10-11T18:11:59.260Z,100032.66
2022-10-11T18:17:06.521Z,100032.36
2022-10-11T18:22:13.895Z,100036.14
2022-10-11T18:27:21.558Z,100038.15
2022-10-11T18:32:29.207Z,100044.70
2022-10-11T18:37:37.961Z,100047.64
2022-10-11T18:42:45.614Z,100047.60
2022-10-11T18:47:54.113Z,100053.48
2022-10-11T18:53:01.262Z,100054.36
2022-10-11T18:58:08.503Z,100057.23
2022-10-11T19:03:15.667Z,100060.58
2022-10-11T19:08:21.064Z,100057.38
2022-10-11T19:13:28.552Z,100061.37
2022-10-11T19:18:40.421Z,100063.73
2022-10-11T19:23:52.518Z,100067.52
2022-10-11T19:29:02.542Z,100066.98
2022-10-11T19:34:10.575Z,100069.23
2022-10-11T19:39:19.131Z,100075.34
2022-10-11T19:44:26.214Z,100077.55
2022-10-11T19:49:33.407Z,100076.48
2022-10-11T19:54:41.292Z,100080.33
2022-10-11T19:59:48.158Z,100077.39
2022-10-11T20:04:55.354Z,100080.48
2022-10-11T20:10:06.313Z,100078.23
2022-10-11T20:15:15.506Z,100081.33
2022-10-11T20:20:23.768Z,100083.20
2022-10-11T20:25:31.881Z,100088.92
2022-10-11T20:30:44.562Z,100089.20
2022-10-11T20:36:02.860Z,100091.02
2022-10-11T20:41:12.239Z,100096.37
2022-10-11T20:46:21.403Z,100096.17
2022-10-11T20:51:29.539Z,100095.11
2022-10-11T20:56:38.011Z,100095.73
2022-10-11T21:01:45.372Z,100100.16
2022-10-11T21:06:53.103Z,100100.78
2022-10-11T21:12:01.506Z,100097.89
2022-10-11T21:17:08.838Z,100101.20
2022-10-11T21:22:16.556Z,100104.80
2022-10-11T21:27:25.001Z,100108.10
2022-10-11T21:32:32.438Z,100101.89
2022-10-11T21:37:40.011Z,100104.31
2022-10-11T21:42:47.162Z,100110.00
2022-10-11T21:47:52.480Z,100114.16
2022-10-11T21:52:59.632Z,100112.66
2022-10-11T21:58:09.661Z,100110.47
2022-10-11T22:03:16.658Z,100110.85
2022-10-11T22:08:24.437Z,100113.27
2022-10-11T22:13:33.158Z,100105.10
2022-10-11T22:18:42.705Z,100102.91
2022-10-11T22:23:51.930Z,100104.49
2022-10-11T22:29:00.114Z,100104.33
2022-10-11T22:34:07.466Z,100107.45
2022-10-11T22:39:14.640Z,100113.22
2022-10-11T22:44:22.274Z,100111.83
2022-10-11T22:49:29.451Z,100108.96
2022-10-11T22:54:34.782Z,100114.38
2022-10-11T22:59:41.952Z,100112.92
2022-10-11T23:04:49.416Z,100114.09
2022-10-11T23:09:56.939Z,100114.02
2022-10-11T23:15:05.664Z,100113.34
2022-10-11T23:20:27.927Z,100108.23
2022-10-11T23:25:35.176Z,100105.13
2022-10-11T23:30:43.753Z,100111.52
2022-10-11T23:35:50.596Z,100114.09
2022-10-11T23:40:58.058Z,100114.17
2022-10-11T23:46:05.823Z,100119.40
2022-10-11T23:51:11.467Z,100118.30
2022-10-11T23:56:18.633Z,100119.84
